Birch River, West Virginia
Current Conditions -  °F | °C
As of 6:35 AM on Tuesday 21 Oct 2014 (Local Time) from KW22 Reporting Station
Overcast Overcast  
Wind Chill: 50°   Ceiling: 2300
Heat Index: 50°   Visibility: 10mi
Dew Point: 48°   Wind: 3mph
Humidity: 94%   Direction: 200°SSW
Pressure: 29.89"   Gusts: NA
Location:  38.5°N, 80.75°W
Report Text: KW22 211035Z AUTO 20003KT 10SM SCT012 OVC023 10/09 A2989 RMK AO2
Loading
Personal Weather Stations






























Interactive Weather Map
Tropical Storm Tracking
New forecast layout! Learn more

10-Day Weather Forecast

Advertisements
Track Severe Weather on mobile